• Join FlightAware (Why Join?)
  • Login
  • US Flag 
08:13AM EDT


 

Airport Tracker/Info


-or-


 

Live Flight TrackerFlight Track Log ✈ N364PH ✈ 10-Apr-2013 ✈ KIAD - KORF

Flight Track Log - Related Links

Times and Time Zones

All times are in EDT time to prevent confusion due to time zone crossing. See the N364PH flight status page for this flight to view local times or setup timezone preferences in your user account.

Time Position Orientation Groundspeed Altitude Reporting Facility
EDT Latitude Longitude Course Direction KTS MPH feet Rate Location/Type
06:00PM 38.6678 -77.2838 154° Southeast  Level Estimated
06:01PM 38.6212 -77.2546 154° Southeast  Level Estimated
06:02PM 38.5746 -77.2254 154° Southeast  Level Estimated
06:03PM 38.5279 -77.1962 154° Southeast  Level Estimated
06:04PM 38.4813 -77.1671 154° Southeast  Level Estimated
06:05PM 38.4346 -77.1380 154° Southeast  Level Estimated
06:06PM 38.3879 -77.1090 154° Southeast  Level Estimated
06:07PM 38.3413 -77.0800 154° Southeast  Level Estimated
06:08PM 38.2946 -77.0510 154° Southeast  Level Estimated
06:09PM 38.2479 -77.0221 154° Southeast  Level Estimated
06:10PM 38.2012 -76.9932 154° Southeast  Level Estimated
06:11PM 38.1545 -76.9644 154° Southeast  Level Estimated
06:12PM 38.1078 -76.9356 154° Southeast  Level Estimated
06:13PM 38.0611 -76.9068 154° Southeast  Level Estimated
06:14PM 38.0144 -76.8781 154° Southeast  Level Estimated
06:15PM 37.9676 -76.8494 154° Southeast  Level Estimated
06:16PM 37.9209 -76.8207 154° Southeast  Level Estimated
06:17PM 37.8741 -76.7921 154° Southeast  Level Estimated
06:18PM 37.8274 -76.7635 154° Southeast  Level Estimated
06:19PM 37.7806 -76.7349 154° Southeast  Level Estimated
06:20PM 37.7339 -76.7064 154° Southeast  Level Estimated
06:21PM 37.6871 -76.6779 154° Southeast  Level Estimated
06:22PM 37.6403 -76.6495 154° Southeast  Level Estimated
06:23PM 37.5936 -76.6210 154° Southeast  Level Estimated
06:24PM 37.5468 -76.5927 154° Southeast  Level Estimated
06:25PM 37.5000 -76.5643 154° Southeast  Level Estimated
06:26PM 37.4532 -76.5360 154° Southeast  Level Estimated
06:27PM 37.4063 -76.5077 154° Southeast  Level Estimated
06:28PM 37.3595 -76.4795 154° Southeast  Level Estimated
06:29PM 37.3127 -76.4513 154° Southeast  Level Estimated
06:30PM 37.2659 -76.4231 154° Southeast  Level Estimated
06:31PM 37.2190 -76.3950 154° Southeast  Level Estimated
06:32PM 37.1722 -76.3669 154° Southeast  Level Estimated
06:33PM 37.1254 -76.3389 154° Southeast  Level Estimated
06:34PM 37.0785 -76.3108 154° Southeast  Level Estimated
06:35PM 37.0316 -76.2828 155° Southeast  Level Estimated
06:36PM 36.9848 -76.2549 155° Southeast  Level Estimated
06:37PM 36.9379 -76.2270 155° Southeast  Level Estimated
06:38PM 36.8946 -76.2012 155° Southeast  Level Estimated
06:39PM 36.8946 -76.2012 302° West  Level Estimated
06:40PM 36.8946 -76.2012 302° West  Level Estimated
06:41PM 36.8946 -76.2012 302° West  Level Estimated
06:42PM 36.8946 -76.2012 302° West  Level Estimated
06:43PM 36.8946 -76.2012 302° West  Level Estimated
06:44PM 36.8946 -76.2012 302° West  Level Estimated
06:45PM 36.8946 -76.2012 302° West  Level Estimated
06:46PM 36.8946 -76.2012 302° West  Level Estimated
06:47PM 36.8946 -76.2012 302° West  Level Estimated
06:48PM 36.8946 -76.2012 302° West  Level Estimated
06:49PM 36.8946 -76.2012 302° West  Level Estimated
06:50PM 36.8946 -76.2012 302° West  Level Estimated
06:51PM 36.8946 -76.2012 302° West  Level Estimated
06:52PM 36.8946 -76.2012 302° West  Level Estimated
06:53PM 36.8946 -76.2012 302° West  Level Estimated
06:54PM 36.8946 -76.2012 302° West  Level Estimated